sensor_id;sensor_type;location;lat;lon;timestamp;P1;durP1;ratioP1;P2;durP2;ratioP2
23175;SDS011;19910;42.652;23.332;2023-05-16T00:01:05;18.38;;;11.57;;
23175;SDS011;19910;42.652;23.332;2023-05-16T00:03:33;17.52;;;14.73;;
23175;SDS011;19910;42.652;23.332;2023-05-16T00:06:00;21.17;;;15.48;;
23175;SDS011;19910;42.652;23.332;2023-05-16T00:08:27;21.10;;;12.93;;
23175;SDS011;19910;42.652;23.332;2023-05-16T00:10:54;20.90;;;12.10;;
23175;SDS011;19910;42.652;23.332;2023-05-16T00:13:21;20.95;;;11.77;;
23175;SDS011;19910;42.652;23.332;2023-05-16T00:15:49;20.05;;;12.27;;
23175;SDS011;19910;42.652;23.332;2023-05-16T00:18:17;21.77;;;12.50;;
23175;SDS011;19910;42.652;23.332;2023-05-16T00:20:45;15.82;;;11.07;;
23175;SDS011;19910;42.652;23.332;2023-05-16T00:23:12;19.48;;;12.57;;
23175;SDS011;19910;42.652;23.332;2023-05-16T00:25:39;15.98;;;11.50;;
23175;SDS011;19910;42.652;23.332;2023-05-16T00:28:05;18.50;;;10.77;;
23175;SDS011;19910;42.652;23.332;2023-05-16T00:30:32;23.45;;;16.27;;
23175;SDS011;19910;42.652;23.332;2023-05-16T00:32:59;21.65;;;12.23;;
23175;SDS011;19910;42.652;23.332;2023-05-16T00:35:26;25.02;;;11.77;;
23175;SDS011;19910;42.652;23.332;2023-05-16T00:37:54;21.15;;;12.45;;
23175;SDS011;19910;42.652;23.332;2023-05-16T00:40:21;18.92;;;12.48;;
23175;SDS011;19910;42.652;23.332;2023-05-16T00:42:48;17.88;;;10.77;;
23175;SDS011;19910;42.652;23.332;2023-05-16T00:45:14;22.70;;;14.18;;
23175;SDS011;19910;42.652;23.332;2023-05-16T00:47:41;14.90;;;10.13;;
23175;SDS011;19910;42.652;23.332;2023-05-16T00:50:08;17.63;;;10.63;;
23175;SDS011;19910;42.652;23.332;2023-05-16T00:52:35;15.18;;;9.68;;
23175;SDS011;19910;42.652;23.332;2023-05-16T00:55:04;19.10;;;11.20;;
23175;SDS011;19910;42.652;23.332;2023-05-16T00:57:32;18.08;;;10.65;;
23175;SDS011;19910;42.652;23.332;2023-05-16T00:59:59;16.50;;;11.25;;
23175;SDS011;19910;42.652;23.332;2023-05-16T01:02:25;18.70;;;9.85;;
23175;SDS011;19910;42.652;23.332;2023-05-16T01:04:54;16.52;;;10.32;;
23175;SDS011;19910;42.652;23.332;2023-05-16T01:07:21;15.45;;;10.65;;
23175;SDS011;19910;42.652;23.332;2023-05-16T01:09:48;19.75;;;12.27;;
23175;SDS011;19910;42.652;23.332;2023-05-16T01:12:18;19.83;;;12.68;;
23175;SDS011;19910;42.652;23.332;2023-05-16T01:14:55;13.80;;;8.80;;
23175;SDS011;19910;42.652;23.332;2023-05-16T01:17:28;20.23;;;13.30;;
23175;SDS011;19910;42.652;23.332;2023-05-16T01:20:03;11.50;;;8.02;;
23175;SDS011;19910;42.652;23.332;2023-05-16T01:22:46;16.35;;;9.38;;
23175;SDS011;19910;42.652;23.332;2023-05-16T01:25:26;17.40;;;10.32;;
23175;SDS011;19910;42.652;23.332;2023-05-16T01:28:02;16.33;;;9.77;;
23175;SDS011;19910;42.652;23.332;2023-05-16T01:30:31;16.92;;;8.88;;
23175;SDS011;19910;42.652;23.332;2023-05-16T01:33:00;18.27;;;10.88;;
23175;SDS011;19910;42.652;23.332;2023-05-16T01:35:27;15.15;;;9.63;;
23175;SDS011;19910;42.652;23.332;2023-05-16T01:37:56;17.73;;;11.43;;
23175;SDS011;19910;42.652;23.332;2023-05-16T01:40:29;15.75;;;9.15;;
23175;SDS011;19910;42.652;23.332;2023-05-16T01:43:04;16.40;;;9.25;;
23175;SDS011;19910;42.652;23.332;2023-05-16T01:45:38;17.02;;;9.48;;
23175;SDS011;19910;42.652;23.332;2023-05-16T01:48:09;15.13;;;9.90;;
23175;SDS011;19910;42.652;23.332;2023-05-16T01:50:42;17.58;;;10.52;;
23175;SDS011;19910;42.652;23.332;2023-05-16T01:53:13;20.00;;;11.93;;
23175;SDS011;19910;42.652;23.332;2023-05-16T01:55:44;21.52;;;16.58;;
23175;SDS011;19910;42.652;23.332;2023-05-16T01:58:14;19.40;;;13.45;;
23175;SDS011;19910;42.652;23.332;2023-05-16T02:00:45;17.25;;;9.75;;
23175;SDS011;19910;42.652;23.332;2023-05-16T02:03:12;19.67;;;12.18;;
23175;SDS011;19910;42.652;23.332;2023-05-16T02:05:38;17.08;;;11.82;;
23175;SDS011;19910;42.652;23.332;2023-05-16T02:08:05;15.85;;;10.02;;
23175;SDS011;19910;42.652;23.332;2023-05-16T02:10:33;14.85;;;9.25;;
23175;SDS011;19910;42.652;23.332;2023-05-16T02:12:59;17.90;;;10.57;;
23175;SDS011;19910;42.652;23.332;2023-05-16T02:15:27;19.90;;;12.30;;
23175;SDS011;19910;42.652;23.332;2023-05-16T02:17:54;21.67;;;12.63;;
23175;SDS011;19910;42.652;23.332;2023-05-16T02:20:22;15.02;;;10.43;;
23175;SDS011;19910;42.652;23.332;2023-05-16T02:22:49;18.27;;;11.52;;
23175;SDS011;19910;42.652;23.332;2023-05-16T02:25:15;17.67;;;11.77;;
23175;SDS011;19910;42.652;23.332;2023-05-16T02:27:42;16.60;;;11.05;;
23175;SDS011;19910;42.652;23.332;2023-05-16T02:30:09;15.73;;;10.90;;
23175;SDS011;19910;42.652;23.332;2023-05-16T02:32:38;14.73;;;9.38;;
23175;SDS011;19910;42.652;23.332;2023-05-16T02:35:05;18.00;;;11.40;;
23175;SDS011;19910;42.652;23.332;2023-05-16T02:37:33;17.08;;;10.18;;
23175;SDS011;19910;42.652;23.332;2023-05-16T02:39:59;18.63;;;13.07;;
23175;SDS011;19910;42.652;23.332;2023-05-16T02:42:26;17.25;;;12.90;;
23175;SDS011;19910;42.652;23.332;2023-05-16T02:44:53;17.25;;;10.10;;
23175;SDS011;19910;42.652;23.332;2023-05-16T02:47:20;15.32;;;10.20;;
23175;SDS011;19910;42.652;23.332;2023-05-16T02:49:48;11.90;;;8.73;;
23175;SDS011;19910;42.652;23.332;2023-05-16T02:52:16;16.20;;;8.40;;
23175;SDS011;19910;42.652;23.332;2023-05-16T02:54:43;13.60;;;8.95;;
23175;SDS011;19910;42.652;23.332;2023-05-16T02:57:09;14.43;;;9.15;;
23175;SDS011;19910;42.652;23.332;2023-05-16T02:59:36;12.02;;;8.32;;
23175;SDS011;19910;42.652;23.332;2023-05-16T03:02:03;14.57;;;11.43;;
23175;SDS011;19910;42.652;23.332;2023-05-16T03:04:30;16.42;;;11.48;;
23175;SDS011;19910;42.652;23.332;2023-05-16T03:06:58;11.88;;;7.63;;
23175;SDS011;19910;42.652;23.332;2023-05-16T03:09:25;12.50;;;7.43;;
23175;SDS011;19910;42.652;23.332;2023-05-16T03:11:52;15.10;;;9.43;;
23175;SDS011;19910;42.652;23.332;2023-05-16T03:14:19;16.63;;;11.85;;
23175;SDS011;19910;42.652;23.332;2023-05-16T03:16:46;18.42;;;11.57;;
23175;SDS011;19910;42.652;23.332;2023-05-16T03:19:13;20.02;;;11.60;;
23175;SDS011;19910;42.652;23.332;2023-05-16T03:21:39;15.13;;;11.32;;
23175;SDS011;19910;42.652;23.332;2023-05-16T03:24:08;16.77;;;11.57;;
23175;SDS011;19910;42.652;23.332;2023-05-16T03:26:34;15.98;;;10.70;;
23175;SDS011;19910;42.652;23.332;2023-05-16T03:29:01;20.15;;;9.35;;
23175;SDS011;19910;42.652;23.332;2023-05-16T03:31:28;11.40;;;7.07;;
23175;SDS011;19910;42.652;23.332;2023-05-16T03:33:56;15.48;;;12.48;;
23175;SDS011;19910;42.652;23.332;2023-05-16T03:36:23;15.40;;;9.40;;
23175;SDS011;19910;42.652;23.332;2023-05-16T03:38:50;17.65;;;10.02;;
23175;SDS011;19910;42.652;23.332;2023-05-16T03:41:18;16.63;;;9.90;;
23175;SDS011;19910;42.652;23.332;2023-05-16T03:43:46;17.10;;;9.05;;
23175;SDS011;19910;42.652;23.332;2023-05-16T03:46:13;13.25;;;8.40;;
23175;SDS011;19910;42.652;23.332;2023-05-16T03:48:39;12.02;;;8.40;;
23175;SDS011;19910;42.652;23.332;2023-05-16T03:51:06;10.00;;;6.93;;
23175;SDS011;19910;42.652;23.332;2023-05-16T03:53:33;20.58;;;12.23;;
23175;SDS011;19910;42.652;23.332;2023-05-16T03:56:00;12.35;;;8.38;;
23175;SDS011;19910;42.652;23.332;2023-05-16T03:58:29;16.23;;;12.65;;
23175;SDS011;19910;42.652;23.332;2023-05-16T04:00:56;18.25;;;11.80;;
23175;SDS011;19910;42.652;23.332;2023-05-16T04:03:22;14.82;;;8.73;;
23175;SDS011;19910;42.652;23.332;2023-05-16T04:05:52;11.80;;;6.80;;
23175;SDS011;19910;42.652;23.332;2023-05-16T04:08:19;20.88;;;8.55;;
23175;SDS011;19910;42.652;23.332;2023-05-16T04:10:46;12.27;;;7.78;;
23175;SDS011;19910;42.652;23.332;2023-05-16T04:13:13;12.38;;;8.80;;
23175;SDS011;19910;42.652;23.332;2023-05-16T04:15:41;15.90;;;10.48;;
23175;SDS011;19910;42.652;23.332;2023-05-16T04:18:08;15.63;;;8.30;;
23175;SDS011;19910;42.652;23.332;2023-05-16T04:20:35;22.27;;;10.93;;
23175;SDS011;19910;42.652;23.332;2023-05-16T04:23:02;16.13;;;10.18;;
23175;SDS011;19910;42.652;23.332;2023-05-16T04:25:29;13.55;;;8.63;;
23175;SDS011;19910;42.652;23.332;2023-05-16T04:27:56;15.40;;;9.45;;
23175;SDS011;19910;42.652;23.332;2023-05-16T04:30:23;12.20;;;6.47;;
23175;SDS011;19910;42.652;23.332;2023-05-16T04:32:51;16.08;;;7.07;;
23175;SDS011;19910;42.652;23.332;2023-05-16T04:35:18;15.32;;;10.60;;
23175;SDS011;19910;42.652;23.332;2023-05-16T04:37:46;19.13;;;13.00;;
23175;SDS011;19910;42.652;23.332;2023-05-16T04:40:12;13.45;;;8.32;;
23175;SDS011;19910;42.652;23.332;2023-05-16T04:42:39;16.48;;;8.05;;
23175;SDS011;19910;42.652;23.332;2023-05-16T04:45:06;12.02;;;7.85;;
23175;SDS011;19910;42.652;23.332;2023-05-16T04:47:36;10.18;;;7.18;;
23175;SDS011;19910;42.652;23.332;2023-05-16T04:50:05;9.57;;;7.20;;
23175;SDS011;19910;42.652;23.332;2023-05-16T04:52:33;7.30;;;5.43;;
23175;SDS011;19910;42.652;23.332;2023-05-16T04:55:01;17.33;;;5.85;;
23175;SDS011;19910;42.652;23.332;2023-05-16T04:57:27;15.45;;;6.97;;
23175;SDS011;19910;42.652;23.332;2023-05-16T04:59:54;9.63;;;6.35;;
23175;SDS011;19910;42.652;23.332;2023-05-16T05:02:21;15.20;;;11.05;;
23175;SDS011;19910;42.652;23.332;2023-05-16T05:04:48;11.48;;;6.97;;
23175;SDS011;19910;42.652;23.332;2023-05-16T05:07:16;14.43;;;8.43;;
23175;SDS011;19910;42.652;23.332;2023-05-16T05:09:43;11.77;;;7.40;;
23175;SDS011;19910;42.652;23.332;2023-05-16T05:12:10;9.48;;;5.80;;
23175;SDS011;19910;42.652;23.332;2023-05-16T05:14:37;12.48;;;7.05;;
23175;SDS011;19910;42.652;23.332;2023-05-16T05:17:04;11.48;;;6.65;;
23175;SDS011;19910;42.652;23.332;2023-05-16T05:19:31;11.52;;;6.60;;
23175;SDS011;19910;42.652;23.332;2023-05-16T05:21:57;12.20;;;7.72;;
23175;SDS011;19910;42.652;23.332;2023-05-16T05:24:26;16.88;;;9.43;;
23175;SDS011;19910;42.652;23.332;2023-05-16T05:26:52;8.68;;;5.45;;
23175;SDS011;19910;42.652;23.332;2023-05-16T05:29:19;11.10;;;6.68;;
23175;SDS011;19910;42.652;23.332;2023-05-16T05:31:46;15.30;;;6.78;;
23175;SDS011;19910;42.652;23.332;2023-05-16T05:34:13;11.65;;;5.45;;
23175;SDS011;19910;42.652;23.332;2023-05-16T05:36:40;11.05;;;6.78;;
23175;SDS011;19910;42.652;23.332;2023-05-16T05:39:08;17.25;;;8.43;;
23175;SDS011;19910;42.652;23.332;2023-05-16T05:41:36;9.63;;;5.93;;
23175;SDS011;19910;42.652;23.332;2023-05-16T05:44:04;14.20;;;10.38;;
23175;SDS011;19910;42.652;23.332;2023-05-16T05:46:31;10.32;;;7.47;;
23175;SDS011;19910;42.652;23.332;2023-05-16T05:48:58;8.32;;;5.63;;
23175;SDS011;19910;42.652;23.332;2023-05-16T05:51:25;12.65;;;6.82;;
23175;SDS011;19910;42.652;23.332;2023-05-16T05:53:52;7.80;;;4.13;;
23175;SDS011;19910;42.652;23.332;2023-05-16T05:56:19;9.13;;;5.70;;
23175;SDS011;19910;42.652;23.332;2023-05-16T05:58:50;13.57;;;9.82;;
23175;SDS011;19910;42.652;23.332;2023-05-16T06:01:16;13.05;;;8.48;;
23175;SDS011;19910;42.652;23.332;2023-05-16T06:03:45;12.85;;;8.00;;
23175;SDS011;19910;42.652;23.332;2023-05-16T06:06:12;7.68;;;5.22;;
23175;SDS011;19910;42.652;23.332;2023-05-16T06:08:39;12.93;;;7.38;;
23175;SDS011;19910;42.652;23.332;2023-05-16T06:11:06;10.07;;;5.50;;
23175;SDS011;19910;42.652;23.332;2023-05-16T06:13:33;12.93;;;5.78;;
23175;SDS011;19910;42.652;23.332;2023-05-16T06:16:01;11.45;;;6.82;;
23175;SDS011;19910;42.652;23.332;2023-05-16T06:18:28;13.57;;;6.88;;
23175;SDS011;19910;42.652;23.332;2023-05-16T06:20:55;10.63;;;5.57;;
23175;SDS011;19910;42.652;23.332;2023-05-16T06:23:21;12.77;;;5.10;;
23175;SDS011;19910;42.652;23.332;2023-05-16T06:25:49;13.18;;;7.88;;
23175;SDS011;19910;42.652;23.332;2023-05-16T06:28:16;10.98;;;6.25;;
23175;SDS011;19910;42.652;23.332;2023-05-16T06:30:42;10.25;;;4.93;;
23175;SDS011;19910;42.652;23.332;2023-05-16T06:33:12;7.20;;;5.32;;
23175;SDS011;19910;42.652;23.332;2023-05-16T06:35:39;10.30;;;5.78;;
23175;SDS011;19910;42.652;23.332;2023-05-16T06:38:06;10.20;;;6.43;;
23175;SDS011;19910;42.652;23.332;2023-05-16T06:40:33;6.20;;;4.80;;
23175;SDS011;19910;42.652;23.332;2023-05-16T06:43:00;5.63;;;4.60;;
23175;SDS011;19910;42.652;23.332;2023-05-16T06:45:26;13.73;;;6.75;;
23175;SDS011;19910;42.652;23.332;2023-05-16T06:47:53;12.90;;;4.95;;
23175;SDS011;19910;42.652;23.332;2023-05-16T06:50:22;10.25;;;6.28;;
23175;SDS011;19910;42.652;23.332;2023-05-16T06:52:49;9.82;;;4.03;;
23175;SDS011;19910;42.652;23.332;2023-05-16T06:55:15;10.40;;;6.55;;
23175;SDS011;19910;42.652;23.332;2023-05-16T06:57:42;9.63;;;5.90;;
23175;SDS011;19910;42.652;23.332;2023-05-16T07:00:09;9.98;;;6.13;;
23175;SDS011;19910;42.652;23.332;2023-05-16T07:02:37;12.10;;;6.97;;
23175;SDS011;19910;42.652;23.332;2023-05-16T07:05:03;11.20;;;6.97;;
23175;SDS011;19910;42.652;23.332;2023-05-16T07:07:33;8.65;;;4.63;;
23175;SDS011;19910;42.652;23.332;2023-05-16T07:10:00;13.02;;;7.88;;
23175;SDS011;19910;42.652;23.332;2023-05-16T07:12:27;14.57;;;7.60;;
23175;SDS011;19910;42.652;23.332;2023-05-16T07:14:53;7.75;;;4.75;;
23175;SDS011;19910;42.652;23.332;2023-05-16T07:17:20;10.25;;;6.43;;
23175;SDS011;19910;42.652;23.332;2023-05-16T07:19:48;7.78;;;5.85;;
23175;SDS011;19910;42.652;23.332;2023-05-16T07:22:14;12.70;;;8.75;;
23175;SDS011;19910;42.652;23.332;2023-05-16T07:24:43;9.10;;;5.50;;
23175;SDS011;19910;42.652;23.332;2023-05-16T07:27:09;9.73;;;5.03;;
23175;SDS011;19910;42.652;23.332;2023-05-16T07:29:37;33.40;;;5.97;;
23175;SDS011;19910;42.652;23.332;2023-05-16T07:32:04;10.98;;;8.73;;
23175;SDS011;19910;42.652;23.332;2023-05-16T07:34:31;16.80;;;8.98;;
23175;SDS011;19910;42.652;23.332;2023-05-16T07:36:58;14.50;;;9.18;;
23175;SDS011;19910;42.652;23.332;2023-05-16T07:39:25;15.05;;;9.80;;
23175;SDS011;19910;42.652;23.332;2023-05-16T07:41:53;14.48;;;9.48;;
23175;SDS011;19910;42.652;23.332;2023-05-16T07:44:20;14.35;;;9.10;;
23175;SDS011;19910;42.652;23.332;2023-05-16T07:46:46;13.98;;;9.52;;
23175;SDS011;19910;42.652;23.332;2023-05-16T07:49:13;18.13;;;9.60;;
23175;SDS011;19910;42.652;23.332;2023-05-16T07:51:40;13.18;;;9.32;;
23175;SDS011;19910;42.652;23.332;2023-05-16T07:54:06;11.55;;;8.35;;
23175;SDS011;19910;42.652;23.332;2023-05-16T07:56:33;18.42;;;9.90;;
23175;SDS011;19910;42.652;23.332;2023-05-16T07:59:01;13.95;;;8.68;;
23175;SDS011;19910;42.652;23.332;2023-05-16T08:01:29;14.95;;;9.93;;
23175;SDS011;19910;42.652;23.332;2023-05-16T08:03:56;16.02;;;9.82;;
23175;SDS011;19910;42.652;23.332;2023-05-16T08:06:23;13.55;;;9.13;;
23175;SDS011;19910;42.652;23.332;2023-05-16T08:08:50;15.02;;;9.20;;
23175;SDS011;19910;42.652;23.332;2023-05-16T08:11:17;16.98;;;8.55;;
23175;SDS011;19910;42.652;23.332;2023-05-16T08:13:46;11.60;;;7.75;;
23175;SDS011;19910;42.652;23.332;2023-05-16T08:16:15;12.80;;;9.20;;
23175;SDS011;19910;42.652;23.332;2023-05-16T08:18:41;12.52;;;8.23;;
23175;SDS011;19910;42.652;23.332;2023-05-16T08:21:08;15.93;;;9.55;;
23175;SDS011;19910;42.652;23.332;2023-05-16T08:23:35;14.60;;;9.25;;
23175;SDS011;19910;42.652;23.332;2023-05-16T08:26:02;14.80;;;8.70;;
23175;SDS011;19910;42.652;23.332;2023-05-16T08:28:29;11.85;;;8.63;;
23175;SDS011;19910;42.652;23.332;2023-05-16T08:30:56;13.50;;;8.45;;
23175;SDS011;19910;42.652;23.332;2023-05-16T08:33:24;10.63;;;8.90;;
23175;SDS011;19910;42.652;23.332;2023-05-16T08:35:51;13.07;;;7.88;;
23175;SDS011;19910;42.652;23.332;2023-05-16T08:38:17;16.20;;;7.60;;
23175;SDS011;19910;42.652;23.332;2023-05-16T08:40:44;13.13;;;7.93;;
23175;SDS011;19910;42.652;23.332;2023-05-16T08:43:11;8.63;;;6.78;;
23175;SDS011;19910;42.652;23.332;2023-05-16T08:45:39;12.77;;;7.25;;
23175;SDS011;19910;42.652;23.332;2023-05-16T08:48:06;10.70;;;6.82;;
23175;SDS011;19910;42.652;23.332;2023-05-16T08:50:36;9.82;;;6.90;;
23175;SDS011;19910;42.652;23.332;2023-05-16T08:53:04;11.27;;;6.30;;
23175;SDS011;19910;42.652;23.332;2023-05-16T08:55:32;11.13;;;7.10;;
23175;SDS011;19910;42.652;23.332;2023-05-16T08:58:00;11.60;;;7.10;;
23175;SDS011;19910;42.652;23.332;2023-05-16T09:00:28;11.18;;;6.40;;
23175;SDS011;19910;42.652;23.332;2023-05-16T09:02:55;13.20;;;5.97;;
23175;SDS011;19910;42.652;23.332;2023-05-16T09:05:23;15.27;;;6.13;;
23175;SDS011;19910;42.652;23.332;2023-05-16T09:07:52;9.35;;;5.97;;
23175;SDS011;19910;42.652;23.332;2023-05-16T09:10:18;8.52;;;6.18;;
23175;SDS011;19910;42.652;23.332;2023-05-16T09:12:46;10.48;;;6.57;;
23175;SDS011;19910;42.652;23.332;2023-05-16T09:15:13;8.10;;;5.25;;
23175;SDS011;19910;42.652;23.332;2023-05-16T09:17:42;9.27;;;6.22;;
23175;SDS011;19910;42.652;23.332;2023-05-16T09:20:10;7.75;;;6.10;;
23175;SDS011;19910;42.652;23.332;2023-05-16T09:22:38;10.75;;;6.03;;
23175;SDS011;19910;42.652;23.332;2023-05-16T09:25:07;11.20;;;6.57;;
23175;SDS011;19910;42.652;23.332;2023-05-16T09:27:34;7.80;;;6.32;;
23175;SDS011;19910;42.652;23.332;2023-05-16T09:30:01;9.50;;;6.18;;
23175;SDS011;19910;42.652;23.332;2023-05-16T09:32:30;9.50;;;6.38;;
23175;SDS011;19910;42.652;23.332;2023-05-16T09:34:56;10.95;;;6.50;;
23175;SDS011;19910;42.652;23.332;2023-05-16T09:37:23;11.00;;;6.72;;
23175;SDS011;19910;42.652;23.332;2023-05-16T09:39:51;12.85;;;6.50;;
23175;SDS011;19910;42.652;23.332;2023-05-16T09:42:20;11.35;;;6.68;;
23175;SDS011;19910;42.652;23.332;2023-05-16T09:44:48;12.00;;;6.15;;
23175;SDS011;19910;42.652;23.332;2023-05-16T09:47:16;10.02;;;5.78;;
23175;SDS011;19910;42.652;23.332;2023-05-16T09:49:44;11.05;;;7.28;;
23175;SDS011;19910;42.652;23.332;2023-05-16T09:52:12;14.93;;;7.22;;
23175;SDS011;19910;42.652;23.332;2023-05-16T09:54:39;13.30;;;6.90;;
23175;SDS011;19910;42.652;23.332;2023-05-16T09:57:06;11.15;;;6.75;;
23175;SDS011;19910;42.652;23.332;2023-05-16T09:59:37;13.15;;;7.43;;
23175;SDS011;19910;42.652;23.332;2023-05-16T10:02:05;8.57;;;7.03;;
23175;SDS011;19910;42.652;23.332;2023-05-16T10:04:32;10.15;;;7.28;;
23175;SDS011;19910;42.652;23.332;2023-05-16T10:07:00;8.38;;;6.40;;
23175;SDS011;19910;42.652;23.332;2023-05-16T10:09:28;12.45;;;7.03;;
23175;SDS011;19910;42.652;23.332;2023-05-16T10:11:58;10.90;;;5.82;;
23175;SDS011;19910;42.652;23.332;2023-05-16T10:14:28;9.73;;;6.55;;
23175;SDS011;19910;42.652;23.332;2023-05-16T10:17:00;12.00;;;7.20;;
23175;SDS011;19910;42.652;23.332;2023-05-16T10:19:29;10.27;;;7.80;;
23175;SDS011;19910;42.652;23.332;2023-05-16T10:21:59;10.52;;;6.85;;
23175;SDS011;19910;42.652;23.332;2023-05-16T10:24:31;8.88;;;6.18;;
23175;SDS011;19910;42.652;23.332;2023-05-16T10:27:04;11.40;;;7.45;;
23175;SDS011;19910;42.652;23.332;2023-05-16T10:29:31;10.05;;;7.07;;
23175;SDS011;19910;42.652;23.332;2023-05-16T10:31:58;12.10;;;7.55;;
23175;SDS011;19910;42.652;23.332;2023-05-16T10:34:28;11.35;;;7.70;;
23175;SDS011;19910;42.652;23.332;2023-05-16T10:36:55;12.85;;;7.80;;
23175;SDS011;19910;42.652;23.332;2023-05-16T10:39:23;13.40;;;7.68;;
23175;SDS011;19910;42.652;23.332;2023-05-16T10:41:50;14.32;;;8.00;;
23175;SDS011;19910;42.652;23.332;2023-05-16T10:44:17;11.55;;;8.00;;
23175;SDS011;19910;42.652;23.332;2023-05-16T10:46:45;15.45;;;7.40;;
23175;SDS011;19910;42.652;23.332;2023-05-16T10:49:19;15.98;;;7.38;;
23175;SDS011;19910;42.652;23.332;2023-05-16T10:52:03;13.75;;;7.30;;
23175;SDS011;19910;42.652;23.332;2023-05-16T10:54:35;10.02;;;6.80;;
23175;SDS011;19910;42.652;23.332;2023-05-16T10:57:04;12.57;;;6.75;;
23175;SDS011;19910;42.652;23.332;2023-05-16T10:59:39;11.57;;;7.20;;
23175;SDS011;19910;42.652;23.332;2023-05-16T11:02:20;9.88;;;6.88;;
23175;SDS011;19910;42.652;23.332;2023-05-16T11:04:49;19.75;;;7.65;;
23175;SDS011;19910;42.652;23.332;2023-05-16T11:07:16;10.02;;;7.45;;
23175;SDS011;19910;42.652;23.332;2023-05-16T11:09:45;11.85;;;7.93;;
23175;SDS011;19910;42.652;23.332;2023-05-16T11:12:19;15.00;;;7.38;;
23175;SDS011;19910;42.652;23.332;2023-05-16T11:14:48;12.60;;;7.32;;
23175;SDS011;19910;42.652;23.332;2023-05-16T11:17:19;9.50;;;6.68;;
23175;SDS011;19910;42.652;23.332;2023-05-16T11:19:47;11.85;;;7.18;;
23175;SDS011;19910;42.652;23.332;2023-05-16T11:22:23;12.80;;;7.32;;
23175;SDS011;19910;42.652;23.332;2023-05-16T11:24:54;10.18;;;7.55;;
23175;SDS011;19910;42.652;23.332;2023-05-16T11:27:23;12.43;;;7.38;;
23175;SDS011;19910;42.652;23.332;2023-05-16T11:29:52;14.77;;;7.15;;
23175;SDS011;19910;42.652;23.332;2023-05-16T11:32:20;14.13;;;6.85;;
23175;SDS011;19910;42.652;23.332;2023-05-16T11:34:50;11.38;;;6.93;;
23175;SDS011;19910;42.652;23.332;2023-05-16T11:37:17;10.30;;;6.75;;
23175;SDS011;19910;42.652;23.332;2023-05-16T11:39:46;10.30;;;6.80;;
23175;SDS011;19910;42.652;23.332;2023-05-16T11:42:13;12.95;;;6.72;;
23175;SDS011;19910;42.652;23.332;2023-05-16T11:44:41;13.90;;;7.03;;
23175;SDS011;19910;42.652;23.332;2023-05-16T11:47:08;12.50;;;7.47;;
23175;SDS011;19910;42.652;23.332;2023-05-16T11:49:36;11.88;;;7.72;;
23175;SDS011;19910;42.652;23.332;2023-05-16T11:52:04;12.98;;;7.70;;
23175;SDS011;19910;42.652;23.332;2023-05-16T11:54:33;18.20;;;8.38;;
23175;SDS011;19910;42.652;23.332;2023-05-16T11:57:00;13.07;;;7.47;;
23175;SDS011;19910;42.652;23.332;2023-05-16T11:59:27;12.90;;;7.40;;
23175;SDS011;19910;42.652;23.332;2023-05-16T12:01:55;15.77;;;7.75;;
23175;SDS011;19910;42.652;23.332;2023-05-16T12:04:21;13.88;;;7.00;;
23175;SDS011;19910;42.652;23.332;2023-05-16T12:06:57;13.15;;;7.25;;
23175;SDS011;19910;42.652;23.332;2023-05-16T12:09:27;13.50;;;7.35;;
23175;SDS011;19910;42.652;23.332;2023-05-16T12:11:54;10.73;;;6.65;;
23175;SDS011;19910;42.652;23.332;2023-05-16T12:14:21;14.25;;;7.55;;
23175;SDS011;19910;42.652;23.332;2023-05-16T12:16:48;10.65;;;6.68;;
23175;SDS011;19910;42.652;23.332;2023-05-16T12:19:17;10.65;;;6.43;;
23175;SDS011;19910;42.652;23.332;2023-05-16T12:21:44;14.60;;;7.65;;
23175;SDS011;19910;42.652;23.332;2023-05-16T12:24:11;10.00;;;6.25;;
23175;SDS011;19910;42.652;23.332;2023-05-16T12:26:39;13.15;;;6.95;;
23175;SDS011;19910;42.652;23.332;2023-05-16T12:29:08;12.20;;;7.28;;
23175;SDS011;19910;42.652;23.332;2023-05-16T12:31:37;10.68;;;6.75;;
23175;SDS011;19910;42.652;23.332;2023-05-16T12:34:13;14.57;;;7.15;;
23175;SDS011;19910;42.652;23.332;2023-05-16T12:36:41;14.48;;;7.00;;
23175;SDS011;19910;42.652;23.332;2023-05-16T12:39:11;12.77;;;6.75;;
23175;SDS011;19910;42.652;23.332;2023-05-16T12:41:41;13.18;;;7.80;;
23175;SDS011;19910;42.652;23.332;2023-05-16T12:44:11;13.05;;;7.65;;
23175;SDS011;19910;42.652;23.332;2023-05-16T12:46:41;10.60;;;7.45;;
23175;SDS011;19910;42.652;23.332;2023-05-16T12:49:12;12.93;;;7.60;;
23175;SDS011;19910;42.652;23.332;2023-05-16T12:51:39;15.43;;;7.78;;
23175;SDS011;19910;42.652;23.332;2023-05-16T12:54:13;11.15;;;7.20;;
23175;SDS011;19910;42.652;23.332;2023-05-16T12:56:41;17.25;;;7.95;;
23175;SDS011;19910;42.652;23.332;2023-05-16T12:59:08;13.50;;;7.80;;
23175;SDS011;19910;42.652;23.332;2023-05-16T13:01:36;16.15;;;7.65;;
23175;SDS011;19910;42.652;23.332;2023-05-16T13:04:04;12.80;;;7.70;;
23175;SDS011;19910;42.652;23.332;2023-05-16T13:06:31;12.55;;;7.88;;
23175;SDS011;19910;42.652;23.332;2023-05-16T13:08:58;14.27;;;7.82;;
23175;SDS011;19910;42.652;23.332;2023-05-16T13:11:26;12.75;;;8.18;;
23175;SDS011;19910;42.652;23.332;2023-05-16T13:13:54;10.23;;;7.07;;
23175;SDS011;19910;42.652;23.332;2023-05-16T13:16:20;13.10;;;7.50;;
23175;SDS011;19910;42.652;23.332;2023-05-16T13:18:47;10.70;;;7.32;;
23175;SDS011;19910;42.652;23.332;2023-05-16T13:21:15;7.32;;;6.35;;
23175;SDS011;19910;42.652;23.332;2023-05-16T13:23:42;15.90;;;7.97;;
23175;SDS011;19910;42.652;23.332;2023-05-16T13:26:08;21.73;;;8.27;;
23175;SDS011;19910;42.652;23.332;2023-05-16T13:28:35;11.27;;;7.50;;
23175;SDS011;19910;42.652;23.332;2023-05-16T13:31:03;14.05;;;7.72;;
23175;SDS011;19910;42.652;23.332;2023-05-16T13:33:30;18.65;;;7.57;;
23175;SDS011;19910;42.652;23.332;2023-05-16T13:35:57;19.40;;;7.90;;
23175;SDS011;19910;42.652;23.332;2023-05-16T13:38:24;18.52;;;9.40;;
23175;SDS011;19910;42.652;23.332;2023-05-16T13:40:51;20.63;;;9.98;;
23175;SDS011;19910;42.652;23.332;2023-05-16T13:43:17;20.67;;;10.68;;
23175;SDS011;19910;42.652;23.332;2023-05-16T13:45:44;25.88;;;10.00;;
23175;SDS011;19910;42.652;23.332;2023-05-16T13:48:12;23.23;;;10.40;;
23175;SDS011;19910;42.652;23.332;2023-05-16T13:50:39;23.70;;;11.07;;
23175;SDS011;19910;42.652;23.332;2023-05-16T13:53:06;23.30;;;10.70;;
23175;SDS011;19910;42.652;23.332;2023-05-16T13:55:33;13.82;;;10.25;;
23175;SDS011;19910;42.652;23.332;2023-05-16T13:58:00;16.80;;;10.18;;
23175;SDS011;19910;42.652;23.332;2023-05-16T14:00:27;16.83;;;9.63;;
23175;SDS011;19910;42.652;23.332;2023-05-16T14:02:54;16.38;;;10.13;;
23175;SDS011;19910;42.652;23.332;2023-05-16T14:05:22;17.52;;;9.70;;
23175;SDS011;19910;42.652;23.332;2023-05-16T14:07:50;21.33;;;10.27;;
23175;SDS011;19910;42.652;23.332;2023-05-16T14:10:16;17.83;;;9.93;;
23175;SDS011;19910;42.652;23.332;2023-05-16T14:12:43;17.45;;;10.60;;
23175;SDS011;19910;42.652;23.332;2023-05-16T14:15:10;21.25;;;11.55;;
23175;SDS011;19910;42.652;23.332;2023-05-16T14:17:37;23.75;;;11.98;;
23175;SDS011;19910;42.652;23.332;2023-05-16T14:20:04;18.48;;;11.27;;
23175;SDS011;19910;42.652;23.332;2023-05-16T14:22:36;17.98;;;10.88;;